EDDHEDFH

Guest
Details From EDDH - Hamburg
To EDFH - Frankfurt Hahn
Flight Number -
Tags Generated
Created
Modified
Stats Distance 245 nm / 455 km
Max Altitude 0 ft / 0 m
Waypoints 3
Social Downloads 1
Likes 0
Share VATSIM

Download

Looking for another format? Having issues loading an existing format? Contact us
Advertisement - Login to hide

Notes

Generated

Route

EDDH PINEM EDFH

ID Type Via Altitude Latitude Longitude Leg Dist Tot Dist Heading (true) Name
O EDDH APT - 0 ft / 0 m 53.65441˚ 9.97521˚ - 0 nm - -
PINEM FIX - 0 ft / 0 m 50.14833˚ 7.39361˚ 231 nm 231 nm 205° / 203° -
O EDFH APT - 0 ft / 0 m 49.93139˚ 7.24688˚ 14 nm 245 nm 204° / 203° -

Altitude Profile

Advertisement - Login to hide

Weather


0- 5 10 15 20 25 30 35+ Temperature / ° C

Clouds and Precipitation
Forecast for 2018-05-24 12:00 UTC. Updated 3 hours ago

Ground ~20,000 ft ~40,000 ft Winds

EDDH

Details ICAO EDDH (HAM)
Name Hamburg
Region Germany - Civil
Timezone Europe/Berlin (UTC+2.0)
Stats Elevation 53 ft / 16 m (AMSL)
Location 53.633665° 9.985235°
Runways 2
Magnetic Variation 2.848° E

METAR

EDDH 241420Z 08013G23KT 050V110 CAVOK 24/09 Q1022 NOSIG

Decode

TAF

TAF EDDH 241100Z 2412/2518 07012KT CAVOK TEMPO 2412/2419 08015G25KT BECMG 2422/2501 07007KT BECMG 2506/2508 08012KT

Decode

Departure Runways

ID Width Length Bearing (true) Bearing (mag) Surface Threshold Offset Overrun Length
05 151 ft / 46 m 10,647 ft / 3,245 m 50.18° 47.33° Asphalt 978 ft / 298 m 194 ft / 59 m
15 151 ft / 46 m 12,013 ft / 3,662 m 152.89° 150.04° Asphalt 0 ft / 0 m 194 ft / 59 m
23 151 ft / 46 m 10,647 ft / 3,245 m 230.22° 227.37° Asphalt 509 ft / 155 m 240 ft / 73 m
33 151 ft / 46 m 12,013 ft / 3,662 m 332.91° 330.06° Asphalt 1,463 ft / 446 m 164 ft / 50 m

EDFH

Details ICAO EDFH (HHN)
Name Frankfurt Hahn
Region Germany - Civil
Timezone Europe/Berlin (UTC+2.0)
Stats Elevation 1,649 ft / 503 m (AMSL)
Location 49.945808° 7.261082°
Runways 1
Magnetic Variation 2.040° E

METAR

EDFH 241350Z 15005KT 090V190 9999 SCT025 BKN050 19/14 Q1018

Decode

TAF

TAF EDFH 241100Z 2412/2512 14004KT 9999 SCT020 TEMPO 2412/2420 TSRA BKN015CB PROB30 TEMPO 2414/2419 2000 TSRAGR TEMPO 2422/2507 0200 FG BKN001

Decode

Destination Runways

ID Width Length Bearing (true) Bearing (mag) Surface Threshold Offset Overrun Length
03 148 ft / 45 m 12,457 ft / 3,797 m 32.37° 30.33° Asphalt 3,461 ft / 1,055 m 0 ft / 0 m
21 148 ft / 45 m 12,457 ft / 3,797 m 212.39° 210.35° Asphalt 984 ft / 300 m 0 ft / 0 m

Approach Navaids

Runway Type Ident Frequency Range Bearing (true) Bearing (mag) Slope Elevation
03 Localiser IHAE 109.30 MHz 18 nm / 33 km 32.39° 30.35° - 1,595 ft / 486 m (AMSL)
03 Glidescope IHAE 109.30 MHz 10 nm / 19 km 32.39° 30.35° 3.00° 1,648 ft / 502 m (AMSL)
21 Localiser IHAW 111.30 MHz 18 nm / 33 km 212.38° 210.34° - 1,648 ft / 502 m (AMSL)
21 Glidescope IHAW 111.30 MHz 10 nm / 19 km 212.39° 210.35° 3.00° 1,600 ft / 488 m (AMSL)

Popular Alternatives